Time;durP1;ratioP1;P1;durP2;ratioP2;P2;SDS_P1;SDS_P2;PMS_P1;PMS_P2;Temp;Humidity;BMP_temperature;BMP_pressure;BME280_temperature;BME280_humidity;BME280_pressure;Samples;Min_cycle;Max_cycle;Signal;HPM_P1;HPM_P2
2024/03/27 00:00:34;;;;;;;15.50;7.80;;;;;;;4.23;61.45;100872.36;107540;1256;108498;-67
2024/03/27 00:03:22;;;;;;;18.00;9.20;;;;;;;4.26;61.45;100869.39;107522;1254;99254;-68
2024/03/27 00:05:50;;;;;;;19.70;8.00;;;;;;;4.25;61.37;100866.39;107590;1253;99067;-67
2024/03/27 00:08:19;;;;;;;13.40;7.50;;;;;;;4.24;61.44;100873.41;107427;1254;111828;-68
2024/03/27 00:10:47;;;;;;;20.40;9.20;;;;;;;4.22;61.50;100877.20;107573;1254;108355;-67
2024/03/27 00:13:15;;;;;;;16.60;8.10;;;;;;;4.24;61.74;100868.23;107517;1254;108550;-66
2024/03/27 00:15:51;;;;;;;18.60;8.00;;;;;;;4.26;61.54;100858.88;107518;1257;99210;-69
2024/03/27 00:18:20;;;;;;;16.90;8.20;;;;;;;4.27;61.61;100861.51;107527;1254;99197;-69
2024/03/27 00:20:48;;;;;;;16.30;8.40;;;;;;;4.29;61.54;100856.58;107528;1254;112191;-67
2024/03/27 00:23:16;;;;;;;20.30;7.80;;;;;;;4.32;61.56;100854.25;107533;1254;107681;-67
2024/03/27 00:25:44;;;;;;;22.00;8.60;;;;;;;4.35;61.47;100855.52;107516;1254;107741;-68
2024/03/27 00:28:13;;;;;;;16.80;7.50;;;;;;;4.37;61.45;100852.55;107508;1253;99226;-67
2024/03/27 00:30:41;;;;;;;14.80;8.20;;;;;;;4.41;61.21;100846.98;107522;1254;99810;-68
2024/03/27 00:33:14;;;;;;;15.80;7.70;;;;;;;4.45;61.29;100841.75;107505;1256;112855;-67
2024/03/27 00:36:00;;;;;;;17.70;9.10;;;;;;;4.49;61.41;100833.33;107535;1255;110976;-66
2024/03/27 00:38:29;;;;;;;17.90;7.90;;;;;;;4.53;61.16;100824.39;107562;1254;108431;-65
2024/03/27 00:40:57;;;;;;;21.60;9.30;;;;;;;4.55;61.04;100824.80;107571;1255;99185;-67
2024/03/27 00:43:25;;;;;;;17.30;8.40;;;;;;;4.57;60.92;100820.93;107574;1255;99081;-65
2024/03/27 00:45:54;;;;;;;16.00;8.00;;;;;;;4.59;60.82;100824.53;107574;1254;112189;-66
2024/03/27 00:48:22;;;;;;;15.20;7.80;;;;;;;4.59;60.77;100823.83;107546;1254;108304;-67
2024/03/27 00:50:51;;;;;;;14.30;7.90;;;;;;;4.56;60.47;100813.73;107594;1251;108404;-65
2024/03/27 00:53:19;;;;;;;16.90;7.60;;;;;;;4.56;60.43;100809.81;107559;1254;99198;-66
2024/03/27 00:55:58;;;;;;;15.10;8.50;;;;;;;4.58;60.16;100812.90;107527;1253;99198;-67
2024/03/27 00:58:28;;;;;;;17.20;7.50;;;;;;;4.58;60.43;100818.57;107638;1254;112766;-67
2024/03/27 01:00:56;;;;;;;14.90;7.40;;;;;;;4.57;60.31;100813.81;107635;1251;107269;-68
2024/03/27 01:03:25;;;;;;;19.50;8.90;;;;;;;4.54;60.25;100806.73;107523;1257;109415;-67
2024/03/27 01:05:53;;;;;;;15.90;6.80;;;;;;;4.52;60.45;100803.69;107572;1251;99682;-67
2024/03/27 01:08:22;;;;;;;11.20;7.10;;;;;;;4.51;60.35;100810.45;107494;1257;99804;-66
2024/03/27 01:10:51;;;;;;;12.80;7.40;;;;;;;4.49;60.26;100806.69;107576;1251;113178;-65
2024/03/27 01:13:19;;;;;;;11.30;6.90;;;;;;;4.48;60.20;100802.98;107643;1251;107775;-66
2024/03/27 01:15:51;;;;;;;24.30;6.90;;;;;;;4.49;59.82;100798.54;107586;1251;108197;-67
2024/03/27 01:18:20;;;;;;;18.30;7.00;;;;;;;4.47;60.12;100803.95;107556;1251;99070;-67
2024/03/27 01:20:48;;;;;;;16.20;6.80;;;;;;;4.46;60.22;100803.84;107536;1251;99210;-68
2024/03/27 01:23:16;;;;;;;13.00;6.60;;;;;;;4.47;60.17;100802.93;107621;1251;112825;-66
2024/03/27 01:25:44;;;;;;;11.30;6.10;;;;;;;4.46;60.23;100802.78;107568;1255;108300;-66
2024/03/27 01:28:12;;;;;;;10.80;5.20;;;;;;;4.43;60.50;100810.06;107488;1251;107847;-64
2024/03/27 01:30:41;;;;;;;14.50;5.80;;;;;;;4.37;60.42;100813.80;107615;1254;99252;-64
2024/03/27 01:33:09;;;;;;;10.50;6.00;;;;;;;4.37;60.38;100814.02;107580;1251;100940;-65
2024/03/27 01:35:44;;;;;;;13.30;6.60;;;;;;;4.39;60.24;100813.65;107557;1254;112569;-64
2024/03/27 01:38:12;;;;;;;12.20;5.80;;;;;;;4.41;60.22;100815.89;107597;1253;107513;-65
2024/03/27 01:40:40;;;;;;;12.60;6.50;;;;;;;4.41;60.31;100821.75;107562;1251;107089;-65
2024/03/27 01:43:08;;;;;;;14.20;7.20;;;;;;;4.37;60.25;100808.13;107587;1251;99282;-66
2024/03/27 01:45:36;;;;;;;18.30;6.60;;;;;;;4.34;60.41;100801.91;107556;1251;99708;-68
2024/03/27 01:48:05;;;;;;;14.40;6.30;;;;;;;4.33;61.02;100798.63;107585;1254;113097;-68
2024/03/27 01:50:35;;;;;;;11.20;5.10;;;;;;;4.32;61.14;100801.54;107573;1254;107510;-68
2024/03/27 01:53:03;;;;;;;11.80;5.50;;;;;;;4.36;61.16;100802.34;107484;1253;107875;-66
2024/03/27 01:55:31;;;;;;;13.50;5.60;;;;;;;4.42;61.17;100803.41;107608;1254;99382;-66
2024/03/27 01:58:00;;;;;;;12.40;5.00;;;;;;;4.47;61.21;100803.63;107464;1256;99183;-66
2024/03/27 02:00:29;;;;;;;13.10;6.30;;;;;;;4.50;60.79;100807.35;107539;1254;113440;-66
2024/03/27 02:02:57;;;;;;;12.30;5.60;;;;;;;4.51;60.77;100807.09;107587;1254;108869;-66
2024/03/27 02:05:25;;;;;;;8.50;5.20;;;;;;;4.52;60.68;100810.58;107485;1254;107749;-66
2024/03/27 02:07:53;;;;;;;12.40;5.40;;;;;;;4.54;60.65;100809.02;107489;1253;98370;-67
2024/03/27 02:10:22;;;;;;;15.40;6.30;;;;;;;4.56;60.46;100805.01;107523;1254;99185;-67
2024/03/27 02:12:50;;;;;;;17.30;5.50;;;;;;;4.58;60.65;100804.19;107607;1252;112562;-66
2024/03/27 02:15:18;;;;;;;20.40;6.30;;;;;;;4.59;60.87;100803.95;107502;1254;108364;-67
2024/03/27 02:17:47;;;;;;;10.30;4.80;;;;;;;4.59;60.83;100805.88;107436;1256;107973;-68
2024/03/27 02:20:15;;;;;;;9.90;5.50;;;;;;;4.61;60.84;100807.02;107471;1254;99292;-67
2024/03/27 02:22:43;;;;;;;12.00;6.10;;;;;;;4.64;60.76;100803.25;107583;1254;99263;-66
2024/03/27 02:25:14;;;;;;;14.90;5.10;;;;;;;4.63;60.60;100805.08;107545;1254;112710;-66
2024/03/27 02:27:42;;;;;;;9.80;5.50;;;;;;;4.66;60.79;100802.63;107573;1254;108321;-65
2024/03/27 02:30:11;;;;;;;8.40;5.20;;;;;;;4.67;60.85;100795.07;107555;1254;107742;-65
2024/03/27 02:32:39;;;;;;;9.90;5.00;;;;;;;4.69;60.82;100801.20;107636;1251;99147;-68
2024/03/27 02:35:11;;;;;;;13.10;5.40;;;;;;;4.68;60.71;100804.23;107559;1256;99794;-67
2024/03/27 02:37:39;;;;;;;10.30;4.80;;;;;;;4.68;60.69;100804.97;107619;1251;112482;-67
2024/03/27 02:40:09;;;;;;;21.30;6.20;;;;;;;4.68;60.84;100799.11;107549;1255;108398;-67
2024/03/27 02:42:37;;;;;;;26.50;11.10;;;;;;;4.68;61.25;100799.80;107530;1254;107286;-66
2024/03/27 02:45:07;;;;;;;45.20;15.50;;;;;;;4.68;61.41;100801.06;107507;1251;99169;-68
2024/03/27 02:47:37;;;;;;;56.10;18.10;;;;;;;4.68;61.88;100800.85;107622;1254;99186;-66
2024/03/27 02:50:05;;;;;;;29.50;10.80;;;;;;;4.70;61.69;100800.56;107623;1250;112617;-68
2024/03/27 02:52:33;;;;;;;23.70;10.30;;;;;;;4.66;61.76;100804.37;107549;1251;106756;-68
2024/03/27 02:55:01;;;;;;;22.90;10.60;;;;;;;4.60;61.57;100805.82;107553;1251;106473;-68
2024/03/27 02:57:30;;;;;;;16.80;8.50;;;;;;;4.55;61.56;100808.64;107501;1251;99272;-67
2024/03/27 02:59:59;;;;;;;15.30;6.80;;;;;;;4.51;61.72;100803.36;107488;1254;99288;-67
2024/03/27 03:02:27;;;;;;;17.00;8.00;;;;;;;4.47;61.83;100798.98;107456;1251;112410;-68
2024/03/27 03:04:55;;;;;;;14.40;7.90;;;;;;;4.44;61.97;100804.85;107463;1251;108998;-68
2024/03/27 03:07:23;;;;;;;13.50;7.00;;;;;;;4.41;61.68;100809.52;107477;1251;109506;-67
2024/03/27 03:09:51;;;;;;;14.60;6.60;;;;;;;4.41;61.57;100807.56;107471;1251;99207;-67
2024/03/27 03:12:20;;;;;;;12.10;5.60;;;;;;;4.44;61.71;100811.48;107514;1254;99051;-69
2024/03/27 03:14:48;;;;;;;10.30;5.80;;;;;;;4.47;61.77;100817.27;107439;1254;113266;-68
2024/03/27 03:17:16;;;;;;;12.10;5.40;;;;;;;4.48;61.73;100822.54;107587;1253;109639;-67
2024/03/27 03:19:44;;;;;;;11.00;5.70;;;;;;;4.49;61.23;100823.54;107517;1251;108600;-66
2024/03/27 03:22:12;;;;;;;13.70;5.70;;;;;;;4.49;61.01;100828.55;107549;1253;99223;-66
2024/03/27 03:24:40;;;;;;;18.00;6.80;;;;;;;4.47;61.13;100831.13;107565;1251;99176;-64
2024/03/27 03:27:08;;;;;;;19.10;7.60;;;;;;;4.44;61.08;100827.05;107467;1253;113302;-63
2024/03/27 03:29:37;;;;;;;13.60;6.60;;;;;;;4.42;61.12;100824.50;107629;1251;108615;-64
2024/03/27 03:32:05;;;;;;;16.20;7.90;;;;;;;4.41;60.79;100824.42;107432;1251;107350;-65
2024/03/27 03:34:33;;;;;;;12.50;6.50;;;;;;;4.39;60.96;100829.65;107475;1251;99278;-66
2024/03/27 03:37:01;;;;;;;11.00;6.30;;;;;;;4.37;60.71;100833.67;107439;1254;99096;-65
2024/03/27 03:39:30;;;;;;;9.00;5.70;;;;;;;4.36;60.49;100833.06;107573;1251;112789;-65
2024/03/27 03:41:58;;;;;;;12.90;6.40;;;;;;;4.34;60.70;100838.02;107525;1253;108332;-68
2024/03/27 03:44:26;;;;;;;11.50;6.00;;;;;;;4.31;60.64;100837.46;107666;1251;108546;-66
2024/03/27 03:46:54;;;;;;;17.20;6.80;;;;;;;4.27;60.73;100837.31;107451;1251;98388;-67
2024/03/27 03:49:22;;;;;;;11.70;6.30;;;;;;;4.24;60.64;100845.17;107556;1251;99711;-67
2024/03/27 03:51:51;;;;;;;12.60;6.80;;;;;;;4.20;60.89;100846.64;107471;1251;113240;-67
2024/03/27 03:54:19;;;;;;;13.40;6.70;;;;;;;4.18;60.85;100838.92;107534;1253;108299;-68
2024/03/27 03:56:47;;;;;;;9.90;6.50;;;;;;;4.16;60.85;100835.16;107542;1251;106677;-68
2024/03/27 03:59:15;;;;;;;13.80;6.80;;;;;;;4.14;61.17;100838.10;107477;1251;99241;-67
2024/03/27 04:01:43;;;;;;;15.40;6.70;;;;;;;4.11;61.49;100839.02;107602;1251;99194;-68
2024/03/27 04:04:12;;;;;;;10.90;6.80;;;;;;;4.12;63.07;100836.31;107407;1254;112351;-68
2024/03/27 04:06:40;;;;;;;15.90;6.40;;;;;;;4.14;62.85;100829.98;107461;1251;108183;-68
2024/03/27 04:09:08;;;;;;;11.70;6.60;;;;;;;4.16;63.38;100833.23;107464;1251;107473;-68
2024/03/27 04:11:36;;;;;;;22.20;8.20;;;;;;;4.13;63.40;100832.84;107415;1251;99260;-68
2024/03/27 04:14:04;;;;;;;25.50;7.20;;;;;;;4.12;62.75;100836.48;107461;1250;99278;-67
2024/03/27 04:16:32;;;;;;;25.20;6.70;;;;;;;4.14;62.61;100838.52;107501;1251;113593;-68
2024/03/27 04:19:00;;;;;;;13.70;6.20;;;;;;;4.16;62.65;100837.14;107607;1251;108295;-66
2024/03/27 04:21:29;;;;;;;12.80;6.40;;;;;;;4.20;62.81;100836.85;107576;1251;108559;-68
2024/03/27 04:23:57;;;;;;;25.90;8.20;;;;;;;4.23;62.94;100836.53;107448;1251;99290;-66
2024/03/27 04:26:25;;;;;;;14.50;6.70;;;;;;;4.26;62.69;100837.23;107600;1251;99168;-66
2024/03/27 04:28:53;;;;;;;13.10;6.60;;;;;;;4.27;62.71;100839.46;107512;1250;113184;-66
2024/03/27 04:31:21;;;;;;;12.60;7.40;;;;;;;4.30;63.09;100837.19;107474;1251;107451;-69
2024/03/27 04:33:49;;;;;;;12.40;6.20;;;;;;;4.34;63.58;100835.14;107456;1254;108239;-69
2024/03/27 04:36:18;;;;;;;19.70;7.10;;;;;;;4.41;63.69;100831.86;107424;1253;99196;-69
2024/03/27 04:38:48;;;;;;;14.40;6.10;;;;;;;4.45;63.98;100831.98;107479;1251;99070;-67
2024/03/27 04:41:17;;;;;;;19.00;8.50;;;;;;;4.48;63.78;100833.59;107422;1251;113241;-67
2024/03/27 04:43:45;;;;;;;18.40;7.20;;;;;;;4.48;64.39;100836.58;107527;1251;107244;-64
2024/03/27 04:46:14;;;;;;;25.10;7.00;;;;;;;4.50;64.65;100834.89;107482;1251;108239;-65
2024/03/27 04:48:43;;;;;;;20.10;6.70;;;;;;;4.48;64.55;100830.75;107488;1251;99178;-65
2024/03/27 04:51:11;;;;;;;14.80;6.50;;;;;;;4.47;64.44;100821.90;107579;1251;99706;-65
2024/03/27 04:53:39;;;;;;;18.20;7.10;;;;;;;4.48;64.05;100819.92;107554;1254;112811;-64
2024/03/27 04:56:07;;;;;;;21.70;6.30;;;;;;;4.50;64.30;100821.36;107585;1251;108316;-64
2024/03/27 04:58:36;;;;;;;14.10;5.70;;;;;;;4.54;63.84;100823.59;107571;1251;108263;-64
2024/03/27 05:01:04;;;;;;;15.00;6.00;;;;;;;4.61;63.58;100826.05;107506;1254;99272;-67
2024/03/27 05:03:32;;;;;;;14.10;6.40;;;;;;;4.67;63.46;100826.89;107557;1251;99719;-67
2024/03/27 05:06:00;;;;;;;32.10;7.60;;;;;;;4.73;63.24;100819.77;107500;1250;112445;-68
2024/03/27 05:08:28;;;;;;;26.60;6.70;;;;;;;4.79;62.92;100818.50;107576;1250;109090;-67
2024/03/27 05:10:56;;;;;;;16.70;8.40;;;;;;;4.86;62.82;100817.73;107512;1251;108083;-67
2024/03/27 05:13:24;;;;;;;24.00;8.10;;;;;;;4.92;62.81;100817.89;107585;1254;99282;-67
2024/03/27 05:15:52;;;;;;;23.60;8.20;;;;;;;4.97;62.54;100821.59;107556;1251;99079;-66
2024/03/27 05:18:20;;;;;;;16.70;8.50;;;;;;;5.05;62.45;100817.92;107552;1254;113079;-65
2024/03/27 05:20:50;;;;;;;27.70;8.40;;;;;;;5.12;62.38;100816.38;107606;1251;108409;-66
2024/03/27 05:23:18;;;;;;;23.20;7.00;;;;;;;5.20;62.36;100814.27;107473;1254;108370;-66
2024/03/27 05:25:47;;;;;;;49.30;9.60;;;;;;;5.27;62.26;100811.87;107565;1251;99173;-70
2024/03/27 05:28:15;;;;;;;21.00;7.80;;;;;;;5.35;62.01;100813.51;107507;1251;99136;-68
2024/03/27 05:30:43;;;;;;;12.50;6.60;;;;;;;5.45;62.15;100806.41;107558;1253;112564;-68
2024/03/27 05:33:11;;;;;;;15.00;7.20;;;;;;;5.61;62.36;100803.58;107559;1254;110124;-67
2024/03/27 05:35:39;;;;;;;28.10;8.00;;;;;;;5.73;61.90;100806.16;107512;1254;108148;-67
2024/03/27 05:38:08;;;;;;;31.40;8.20;;;;;;;5.82;61.80;100805.70;107520;1253;99209;-68
2024/03/27 05:40:36;;;;;;;23.10;7.20;;;;;;;5.91;61.96;100807.41;107547;1253;99735;-68
2024/03/27 05:43:05;;;;;;;33.00;8.70;;;;;;;5.95;61.69;100795.38;107607;1251;113390;-68
2024/03/27 05:45:33;;;;;;;12.60;7.20;;;;;;;6.02;61.79;100799.29;107530;1250;107279;-66
2024/03/27 05:48:01;;;;;;;17.90;6.80;;;;;;;6.07;61.68;100797.11;107559;1251;107111;-65
2024/03/27 05:50:30;;;;;;;23.00;7.30;;;;;;;6.08;61.22;100798.67;107526;1251;99185;-65
2024/03/27 05:52:58;;;;;;;12.40;6.70;;;;;;;6.08;61.18;100796.35;107567;1251;99061;-65
2024/03/27 05:55:27;;;;;;;17.60;6.80;;;;;;;6.08;61.14;100797.41;107580;1250;113119;-62
2024/03/27 05:57:56;;;;;;;21.50;6.90;;;;;;;6.08;61.17;100800.22;107519;1251;108628;-64
2024/03/27 06:00:24;;;;;;;14.20;7.30;;;;;;;6.11;61.21;100794.70;107498;1251;108442;-65
2024/03/27 06:02:53;;;;;;;15.90;7.80;;;;;;;6.17;61.38;100799.67;107477;1254;99185;-65
2024/03/27 06:05:21;;;;;;;16.80;7.80;;;;;;;6.20;61.26;100800.10;107408;1254;99226;-67
2024/03/27 06:07:49;;;;;;;27.80;8.20;;;;;;;6.27;61.32;100801.25;107362;1251;112306;-66
2024/03/27 06:10:17;;;;;;;26.50;7.40;;;;;;;6.33;61.43;100796.21;107396;1251;107797;-65
2024/03/27 06:12:46;;;;;;;21.90;7.00;;;;;;;6.41;61.27;100800.43;107441;1251;108772;-64
2024/03/27 06:15:15;;;;;;;22.10;8.20;;;;;;;6.50;61.15;100798.21;107480;1253;99167;-64
2024/03/27 06:17:43;;;;;;;17.30;7.60;;;;;;;6.62;60.63;100803.80;107471;1253;99067;-64
2024/03/27 06:20:13;;;;;;;21.00;7.10;;;;;;;6.74;60.32;100800.98;107564;1251;113217;-63
2024/03/27 06:22:41;;;;;;;19.30;8.00;;;;;;;6.79;60.08;100803.80;107451;1251;107809;-63
2024/03/27 06:25:09;;;;;;;15.20;7.60;;;;;;;6.86;60.13;100803.84;107455;1251;108315;-63
2024/03/27 06:27:37;;;;;;;18.10;7.40;;;;;;;6.93;60.05;100803.92;107413;1253;99095;-63
2024/03/27 06:30:08;;;;;;;22.50;8.30;;;;;;;7.00;59.78;100805.16;107587;1254;99733;-64
2024/03/27 06:32:37;;;;;;;27.30;9.00;;;;;;;7.09;59.66;100804.01;107472;1254;113586;-64
2024/03/27 06:35:07;;;;;;;104.00;14.40;;;;;;;7.20;59.73;100803.37;107571;1254;107376;-64
2024/03/27 06:37:36;;;;;;;34.80;10.20;;;;;;;7.33;59.53;100804.73;107493;1251;106915;-64
2024/03/27 06:40:04;;;;;;;32.60;7.20;;;;;;;7.45;59.04;100808.15;107399;1251;99195;-64
2024/03/27 06:42:32;;;;;;;15.00;7.40;;;;;;;7.57;59.08;100811.73;107518;1254;99271;-64
2024/03/27 06:45:02;;;;;;;96.10;11.80;;;;;;;7.68;59.12;100814.77;107398;1251;112767;-66
2024/03/27 06:47:43;;;;;;;34.90;8.20;;;;;;;7.88;59.02;100811.33;107492;1251;107372;-65
2024/03/27 06:50:12;;;;;;;24.30;7.50;;;;;;;7.99;58.82;100812.94;107428;1254;107793;-66
2024/03/27 06:52:40;;;;;;;16.30;7.50;;;;;;;8.08;58.38;100814.77;107600;1254;99277;-64
2024/03/27 06:55:08;;;;;;;24.80;8.40;;;;;;;8.18;58.30;100814.57;107583;1254;99093;-65
2024/03/27 06:57:36;;;;;;;16.50;7.40;;;;;;;8.29;57.83;100806.02;107591;1255;113582;-65
2024/03/27 07:00:05;;;;;;;25.90;8.50;;;;;;;8.31;57.91;100804.04;107616;1255;107301;-66
2024/03/27 07:02:33;;;;;;;13.40;6.50;;;;;;;8.40;57.98;100806.77;107579;1255;107206;-65
2024/03/27 07:05:02;;;;;;;20.30;6.90;;;;;;;8.52;57.78;100808.00;107594;1251;99202;-65
2024/03/27 07:07:30;;;;;;;15.70;7.20;;;;;;;8.65;57.57;100809.86;107543;1252;99236;-64
2024/03/27 07:09:58;;;;;;;37.50;7.10;;;;;;;8.71;57.22;100817.41;107529;1255;112459;-64
2024/03/27 07:12:27;;;;;;;15.10;6.30;;;;;;;8.76;57.04;100809.48;107564;1253;108800;-64
2024/03/27 07:14:58;;;;;;;19.20;6.30;;;;;;;8.82;57.00;100804.59;107578;1253;108276;-65
2024/03/27 07:17:26;;;;;;;11.40;6.20;;;;;;;8.91;56.91;100806.32;107533;1254;99185;-65
2024/03/27 07:19:57;;;;;;;18.40;7.90;;;;;;;9.08;56.91;100801.40;107630;1253;99727;-67
2024/03/27 07:22:26;;;;;;;29.20;7.00;;;;;;;9.27;56.94;100796.27;107541;1253;112163;-65
2024/03/27 07:24:54;;;;;;;21.10;7.50;;;;;;;9.46;56.51;100800.06;107652;1251;108744;-65
2024/03/27 07:27:22;;;;;;;19.30;7.00;;;;;;;9.63;56.22;100797.42;107548;1254;107514;-66
2024/03/27 07:29:51;;;;;;;14.60;7.10;;;;;;;9.80;55.39;100792.56;107551;1256;99278;-65
2024/03/27 07:32:19;;;;;;;15.30;6.60;;;;;;;9.95;55.09;100796.83;107555;1255;99724;-65
2024/03/27 07:34:47;;;;;;;12.60;5.50;;;;;;;10.08;54.32;100797.31;107524;1253;112946;-64
2024/03/27 07:37:15;;;;;;;20.90;5.70;;;;;;;10.17;53.16;100793.17;107598;1253;108594;-64
2024/03/27 07:39:44;;;;;;;17.10;5.10;;;;;;;10.29;52.82;100792.98;107525;1253;108746;-67
2024/03/27 07:42:16;;;;;;;18.30;5.60;;;;;;;10.42;52.00;100793.00;107490;1254;99064;-68
2024/03/27 07:44:44;;;;;;;21.90;5.60;;;;;;;10.54;51.85;100794.45;107484;1252;99146;-67
2024/03/27 07:47:12;;;;;;;18.10;5.20;;;;;;;10.71;51.25;100797.99;107569;1251;113061;-68
2024/03/27 07:49:40;;;;;;;13.10;6.20;;;;;;;10.84;51.23;100799.39;107477;1251;107935;-65
2024/03/27 07:52:08;;;;;;;23.50;5.80;;;;;;;10.98;51.22;100800.25;107517;1253;107880;-68
2024/03/27 07:54:36;;;;;;;18.90;5.80;;;;;;;11.16;51.29;100797.98;107424;1251;99198;-67
2024/03/27 07:57:06;;;;;;;15.30;5.30;;;;;;;11.31;50.68;100796.93;107278;1251;328194;-67
2024/03/27 07:59:35;;;;;;;8.20;5.50;;;;;;;11.44;50.30;100799.55;107480;1250;112566;-67
2024/03/27 08:02:03;;;;;;;16.80;5.70;;;;;;;11.55;50.04;100797.51;107491;1250;107581;-66
2024/03/27 08:04:31;;;;;;;9.50;5.20;;;;;;;11.61;49.35;100796.23;107593;1251;108368;-67
2024/03/27 08:06:59;;;;;;;24.10;6.60;;;;;;;11.64;49.02;100792.48;107451;1251;99294;-67
2024/03/27 08:09:27;;;;;;;11.70;5.20;;;;;;;11.69;48.70;100792.93;107547;1251;99038;-68
2024/03/27 08:11:55;;;;;;;9.40;4.90;;;;;;;11.75;48.45;100789.16;107521;1251;113138;-68
2024/03/27 08:14:23;;;;;;;25.90;5.40;;;;;;;11.80;48.46;100789.06;107526;1251;107521;-66
2024/03/27 08:16:51;;;;;;;27.40;5.20;;;;;;;11.92;48.62;100791.33;107585;1253;107299;-67
2024/03/27 08:19:19;;;;;;;37.20;6.10;;;;;;;12.11;48.38;100792.27;107486;1251;99175;-67
2024/03/27 08:21:47;;;;;;;9.90;5.00;;;;;;;12.28;47.58;100789.84;107554;1254;99154;-68
2024/03/27 08:24:15;;;;;;;17.50;5.10;;;;;;;12.42;47.92;100790.95;107508;1254;112919;-67
2024/03/27 08:26:44;;;;;;;21.70;4.30;;;;;;;12.63;47.90;100788.30;107504;1250;108308;-67
2024/03/27 08:29:13;;;;;;;11.10;5.20;;;;;;;12.77;47.07;100788.67;107555;1251;108133;-67
2024/03/27 08:31:41;;;;;;;16.90;4.90;;;;;;;12.84;46.16;100784.26;107536;1250;99118;-67
2024/03/27 08:34:10;;;;;;;19.50;5.50;;;;;;;12.90;46.33;100781.65;107541;1250;99697;-67
2024/03/27 08:36:40;;;;;;;18.20;4.60;;;;;;;12.96;46.12;100781.29;107545;1250;113671;-68
2024/03/27 08:39:10;;;;;;;8.20;4.30;;;;;;;13.09;46.18;100779.30;107518;1251;107415;-68
2024/03/27 08:41:38;;;;;;;15.00;4.60;;;;;;;13.16;45.00;100769.07;107508;1251;107950;-69
2024/03/27 08:44:07;;;;;;;12.60;4.00;;;;;;;13.19;44.93;100782.84;107547;1251;99348;-68
2024/03/27 08:46:35;;;;;;;10.80;4.20;;;;;;;13.27;44.74;100778.94;107547;1251;99764;-68
2024/03/27 08:49:05;;;;;;;9.70;4.20;;;;;;;13.37;44.91;100778.88;107551;1250;113143;-67
2024/03/27 08:51:33;;;;;;;22.60;4.30;;;;;;;13.52;45.12;100778.30;107564;1250;107013;-69
2024/03/27 08:54:01;;;;;;;16.50;3.80;;;;;;;13.61;43.97;100769.77;107454;1253;108229;-69
2024/03/27 08:56:30;;;;;;;12.20;4.40;;;;;;;13.65;43.90;100778.41;107539;1253;99188;-69
2024/03/27 08:58:58;;;;;;;15.90;4.40;;;;;;;13.79;43.82;100770.27;107619;1254;99511;-68
2024/03/27 09:01:27;;;;;;;15.20;3.70;;;;;;;13.94;42.68;100772.34;107544;1254;114374;-68
2024/03/27 09:03:55;;;;;;;20.00;4.40;;;;;;;14.12;41.77;100775.77;107571;1254;107684;-69
2024/03/27 09:06:24;;;;;;;17.40;3.40;;;;;;;14.27;40.25;100774.37;107525;1251;108196;-68
2024/03/27 09:08:52;;;;;;;17.40;3.40;;;;;;;14.40;39.68;100777.73;107499;1251;99144;-69
2024/03/27 09:11:21;;;;;;;19.70;4.00;;;;;;;14.55;37.92;100774.71;107533;1251;99212;-68
2024/03/27 09:13:50;;;;;;;34.60;3.30;;;;;;;14.66;35.83;100780.03;107498;1256;113058;-68
2024/03/27 09:16:18;;;;;;;16.90;2.50;;;;;;;14.70;35.30;100779.31;107570;1251;107179;-68
2024/03/27 09:18:46;;;;;;;19.30;2.70;;;;;;;14.75;34.93;100777.44;107520;1250;108219;-69
2024/03/27 09:21:14;;;;;;;19.90;3.50;;;;;;;14.74;35.49;100766.98;107518;1251;99278;-66
2024/03/27 09:23:42;;;;;;;27.20;2.90;;;;;;;14.81;35.62;100769.30;107487;1257;99240;-67
2024/03/27 09:26:10;;;;;;;24.50;4.20;;;;;;;14.94;35.94;100769.91;107557;1254;112803;-68
2024/03/27 09:28:38;;;;;;;18.90;3.10;;;;;;;15.10;35.12;100771.11;107573;1254;107647;-68
2024/03/27 09:31:07;;;;;;;7.50;3.00;;;;;;;15.20;34.53;100766.59;107577;1251;107350;-68
2024/03/27 09:33:35;;;;;;;7.00;2.90;;;;;;;15.25;34.65;100761.77;107429;1251;99411;-67
2024/03/27 09:36:12;;;;;;;26.00;3.90;;;;;;;15.35;35.16;100763.31;107594;1251;99171;-68
2024/03/27 09:38:42;;;;;;;7.90;2.90;;;;;;;15.59;34.95;100767.23;107516;1253;113738;-67
2024/03/27 09:41:10;;;;;;;8.90;2.50;;;;;;;15.72;33.39;100767.30;107620;1254;107243;-67
2024/03/27 09:43:39;;;;;;;17.50;2.80;;;;;;;15.68;33.42;100774.05;107550;1251;106068;-68
2024/03/27 09:46:09;;;;;;;28.70;3.90;;;;;;;15.63;33.21;100776.92;107586;1251;99183;-68
2024/03/27 09:48:42;;;;;;;20.90;2.70;;;;;;;15.55;33.44;100772.59;107556;1251;99710;-69
2024/03/27 09:51:11;;;;;;;10.30;2.90;;;;;;;15.58;33.82;100774.07;107546;1254;112733;-68
2024/03/27 09:53:43;;;;;;;11.70;2.70;;;;;;;15.68;33.45;100772.27;107562;1255;107892;-66
2024/03/27 09:56:11;;;;;;;14.70;2.60;;;;;;;15.65;33.36;100770.58;107529;1253;107479;-68
2024/03/27 09:58:39;;;;;;;40.90;3.60;;;;;;;15.68;33.95;100765.91;107450;1252;99214;-67
2024/03/27 10:01:08;;;;;;;30.70;3.30;;;;;;;15.84;34.10;100759.47;107588;1253;99150;-68
2024/03/27 10:03:37;;;;;;;7.50;2.70;;;;;;;16.09;34.01;100768.27;107637;1256;110816;-68
2024/03/27 10:06:05;;;;;;;9.00;2.70;;;;;;;16.34;33.26;100763.31;107418;1253;106809;-67
2024/03/27 10:08:33;;;;;;;17.00;3.10;;;;;;;16.52;32.76;100757.25;107554;1254;106828;-67
2024/03/27 10:11:01;;;;;;;23.80;3.70;;;;;;;16.69;32.64;100751.23;107516;1254;99229;-67
2024/03/27 10:13:29;;;;;;;32.20;3.80;;;;;;;16.86;32.79;100744.40;107482;1254;99185;-66
2024/03/27 10:15:57;;;;;;;14.70;4.10;;;;;;;17.07;32.04;100760.61;107551;1253;112748;-68
2024/03/27 10:18:26;;;;;;;17.70;3.40;;;;;;;17.06;31.88;100752.89;107594;1253;107626;-68
2024/03/27 10:20:54;;;;;;;13.50;3.80;;;;;;;16.95;32.31;100743.69;107527;1253;107757;-68
2024/03/27 10:23:22;;;;;;;14.30;3.80;;;;;;;16.95;32.46;100742.09;107506;1252;99204;-69
2024/03/27 10:25:50;;;;;;;32.50;3.60;;;;;;;16.85;32.33;100746.10;107506;1254;99058;-66
2024/03/27 10:28:19;;;;;;;33.10;4.30;;;;;;;16.72;32.69;100738.04;107574;1254;112812;-69
2024/03/27 10:30:49;;;;;;;13.60;4.00;;;;;;;16.70;32.68;100740.05;107529;1252;107862;-66
2024/03/27 10:33:17;;;;;;;17.20;3.40;;;;;;;16.65;32.62;100738.63;107532;1252;108433;-67
2024/03/27 10:35:47;;;;;;;8.20;3.00;;;;;;;16.56;32.73;100741.76;107583;1254;99172;-67
2024/03/27 10:38:15;;;;;;;10.00;3.10;;;;;;;16.46;32.82;100735.17;107589;1252;99285;-67
2024/03/27 10:40:47;;;;;;;8.80;3.40;;;;;;;16.37;32.97;100736.43;107615;1254;112126;-67
2024/03/27 10:43:34;;;;;;;9.00;2.30;;;;;;;16.39;32.92;100733.11;107494;1254;106752;-67
2024/03/27 10:46:04;;;;;;;13.90;2.80;;;;;;;16.41;32.80;100728.64;107601;1254;107378;-68
2024/03/27 10:48:36;;;;;;;11.50;2.90;;;;;;;16.45;32.81;100720.45;107528;1254;99148;-67
2024/03/27 10:51:06;;;;;;;9.50;2.80;;;;;;;16.56;32.84;100727.55;107508;1254;99188;-67
2024/03/27 10:53:41;;;;;;;5.40;2.40;;;;;;;16.70;33.00;100714.73;107591;1254;113092;-67
2024/03/27 10:56:11;;;;;;;17.40;2.50;;;;;;;16.88;32.54;100721.24;107585;1254;107402;-66
2024/03/27 10:58:40;;;;;;;7.10;2.30;;;;;;;16.88;32.20;100718.34;107486;1253;108367;-66
2024/03/27 11:01:09;;;;;;;17.80;3.50;;;;;;;16.95;32.05;100721.80;107560;1255;99269;-66
2024/03/27 11:03:41;;;;;;;20.50;3.40;;;;;;;16.98;31.78;100711.09;107603;1253;100177;-66
2024/03/27 11:06:13;;;;;;;11.00;3.00;;;;;;;17.01;32.09;100709.61;107631;1254;111757;-67
2024/03/27 11:08:42;;;;;;;15.70;3.10;;;;;;;17.34;31.86;100708.02;107647;1251;107666;-67
2024/03/27 11:11:13;;;;;;;14.00;2.90;;;;;;;17.67;31.46;100697.70;107550;1251;107763;-69
2024/03/27 11:13:44;;;;;;;16.70;3.40;;;;;;;18.08;31.25;100695.05;107594;1251;99198;-68
2024/03/27 11:16:13;;;;;;;27.30;3.40;;;;;;;18.36;31.28;100693.29;107585;1254;99213;-68